createdAt,value
2022-11-27T00:02:58.448Z,97.20
2022-11-27T00:06:00.554Z,96.89
2022-11-27T00:09:05.483Z,97.19
2022-11-27T00:12:07.657Z,96.81
2022-11-27T00:15:13.409Z,96.59
2022-11-27T00:18:18.025Z,95.19
2022-11-27T00:21:30.129Z,95.86
2022-11-27T00:24:32.186Z,95.65
2022-11-27T00:27:34.237Z,95.82
2022-11-27T00:30:36.292Z,96.21
2022-11-27T00:33:38.504Z,96.40
2022-11-27T00:36:43.945Z,95.24
2022-11-27T00:39:48.859Z,95.15
2022-11-27T00:42:50.907Z,94.77
2022-11-27T00:45:52.926Z,94.61
2022-11-27T00:48:55.107Z,93.57
2022-11-27T00:51:57.175Z,93.49
2022-11-27T00:54:59.234Z,93.35
2022-11-27T00:58:01.289Z,93.48
2022-11-27T01:01:07.397Z,92.63
2022-11-27T01:04:12.789Z,92.73
2022-11-27T01:07:14.922Z,92.23
2022-11-27T01:10:17.110Z,92.12
2022-11-27T01:13:19.336Z,93.52
2022-11-27T01:16:24.759Z,91.95
2022-11-27T01:19:26.965Z,92.68
2022-11-27T01:22:29.003Z,92.03
2022-11-27T01:25:31.032Z,91.06
2022-11-27T01:28:33.352Z,89.20
2022-11-27T01:31:35.558Z,88.60
2022-11-27T01:34:37.916Z,87.92
2022-11-27T01:37:40.219Z,87.14
2022-11-27T01:40:42.249Z,87.17
2022-11-27T01:44:24.404Z,87.30
2022-11-27T01:47:34.779Z,86.45
2022-11-27T01:50:38.117Z,86.29
2022-11-27T01:53:40.229Z,85.70
2022-11-27T01:56:42.332Z,85.77
2022-11-27T01:59:45.485Z,85.63
2022-11-27T02:02:47.731Z,85.84
2022-11-27T02:05:49.769Z,85.92
2022-11-27T02:08:52.223Z,85.83
2022-11-27T02:12:02.689Z,84.44
2022-11-27T02:15:33.346Z,84.53
2022-11-27T02:18:58.952Z,82.67
2022-11-27T02:22:12.791Z,82.70
2022-11-27T02:25:57.559Z,82.68
2022-11-27T02:29:03.828Z,75.87
2022-11-27T02:32:16.125Z,75.18
2022-11-27T02:35:20.757Z,74.83
2022-11-27T02:38:38.345Z,74.19
2022-11-27T02:41:49.502Z,74.68
2022-11-27T02:44:58.322Z,75.17
2022-11-27T02:48:06.118Z,75.34
2022-11-27T02:51:08.250Z,76.04
2022-11-27T02:54:14.105Z,75.98
2022-11-27T02:57:16.196Z,76.22
2022-11-27T03:00:18.809Z,75.85
2022-11-27T03:03:26.969Z,75.68
2022-11-27T03:06:36.988Z,76.26
2022-11-27T03:09:42.765Z,77.57
2022-11-27T03:12:46.366Z,77.60
2022-11-27T03:16:39.158Z,76.75
2022-11-27T03:20:01.133Z,76.64
2022-11-27T03:23:03.166Z,76.82
2022-11-27T03:26:05.402Z,76.82
2022-11-27T03:29:12.676Z,77.59
2022-11-27T03:32:14.757Z,77.88
2022-11-27T03:35:18.838Z,77.77
2022-11-27T03:38:20.896Z,77.74
2022-11-27T03:41:41.956Z,78.24
2022-11-27T03:45:26.789Z,78.08
2022-11-27T03:48:34.073Z,77.33
2022-11-27T03:52:13.868Z,76.46
2022-11-27T03:55:45.198Z,75.90
2022-11-27T03:59:03.912Z,74.87
2022-11-27T04:02:06.080Z,74.40
2022-11-27T04:05:08.919Z,74.04
2022-11-27T04:08:11.217Z,73.69
2022-11-27T04:11:14.030Z,74.07
2022-11-27T04:14:16.085Z,73.88
2022-11-27T04:17:18.137Z,73.63
2022-11-27T04:20:20.177Z,73.33
2022-11-27T04:23:22.247Z,72.83
2022-11-27T04:26:24.708Z,72.11
2022-11-27T04:29:26.839Z,71.83
2022-11-27T04:32:29.005Z,71.54
2022-11-27T04:35:31.073Z,71.34
2022-11-27T04:38:33.182Z,71.19
2022-11-27T04:41:35.405Z,71.63
2022-11-27T04:44:37.603Z,70.97
2022-11-27T04:47:39.928Z,71.74
2022-11-27T04:50:42.037Z,71.79
2022-11-27T04:53:44.149Z,72.47
2022-11-27T04:56:46.192Z,73.23
2022-11-27T04:59:48.249Z,73.87
2022-11-27T05:02:50.401Z,73.44
2022-11-27T05:05:57.121Z,72.60
2022-11-27T05:09:02.279Z,73.07
2022-11-27T05:12:04.882Z,73.12
2022-11-27T05:15:08.108Z,72.56
2022-11-27T05:18:10.221Z,72.38
2022-11-27T05:21:12.274Z,72.23
2022-11-27T05:24:14.891Z,71.79
2022-11-27T05:27:17.005Z,71.72
2022-11-27T05:30:19.266Z,71.90
2022-11-27T05:33:21.314Z,70.01
2022-11-27T05:36:23.461Z,69.43
2022-11-27T05:39:25.704Z,69.04
2022-11-27T05:42:27.881Z,69.04
2022-11-27T05:45:30.331Z,69.75
2022-11-27T05:48:32.581Z,70.25
2022-11-27T05:51:34.700Z,71.67
2022-11-27T05:54:36.797Z,71.80
2022-11-27T05:57:39.137Z,71.82
2022-11-27T06:00:41.288Z,71.80
2022-11-27T06:03:43.394Z,71.94
2022-11-27T06:06:45.553Z,72.06
2022-11-27T06:09:47.575Z,71.66
2022-11-27T06:12:49.681Z,72.15
2022-11-27T06:15:51.758Z,71.70
2022-11-27T06:18:55.374Z,71.16
2022-11-27T06:21:57.440Z,71.34
2022-11-27T06:24:59.545Z,70.29
2022-11-27T06:28:01.649Z,71.32
2022-11-27T06:31:13.125Z,71.91
2022-11-27T06:34:18.234Z,71.69
2022-11-27T06:37:20.372Z,72.03
2022-11-27T06:40:22.439Z,72.49
2022-11-27T06:43:24.513Z,72.67
2022-11-27T06:46:27.123Z,72.51
2022-11-27T06:49:29.203Z,72.66
2022-11-27T06:52:33.628Z,71.82
2022-11-27T06:55:39.392Z,72.23
2022-11-27T06:58:41.482Z,72.05
2022-11-27T07:01:43.650Z,71.40
2022-11-27T07:04:45.908Z,69.81
2022-11-27T07:07:48.018Z,70.30
2022-11-27T07:10:50.101Z,70.40
2022-11-27T07:13:52.273Z,70.55
2022-11-27T07:16:54.479Z,70.90
2022-11-27T07:19:56.619Z,71.03
2022-11-27T07:22:58.633Z,72.07
2022-11-27T07:26:06.376Z,71.80
2022-11-27T07:29:08.312Z,71.75
2022-11-27T07:32:10.368Z,71.93
2022-11-27T07:35:12.471Z,72.27
2022-11-27T07:38:14.511Z,72.22
2022-11-27T07:41:16.676Z,72.59
2022-11-27T07:44:18.764Z,71.54
2022-11-27T07:47:20.774Z,72.92
2022-11-27T07:50:22.860Z,73.18
2022-11-27T07:53:24.911Z,72.69
2022-11-27T07:56:27.903Z,72.01
2022-11-27T07:59:29.977Z,71.41
2022-11-27T08:02:32.059Z,70.62
2022-11-27T08:05:35.594Z,72.42
2022-11-27T08:08:37.638Z,70.86
2022-11-27T08:11:39.772Z,72.20
2022-11-27T08:14:42.095Z,71.24
2022-11-27T08:17:44.289Z,71.36
2022-11-27T08:20:46.389Z,71.46
2022-11-27T08:23:48.435Z,71.47
2022-11-27T08:26:52.157Z,72.13
2022-11-27T08:29:54.289Z,72.71
2022-11-27T08:32:56.328Z,72.16
2022-11-27T08:35:58.429Z,72.11
2022-11-27T08:39:00.493Z,71.48
2022-11-27T08:42:02.535Z,71.53
2022-11-27T08:45:05.056Z,72.91
2022-11-27T08:48:07.334Z,72.42
2022-11-27T08:51:11.990Z,71.50
2022-11-27T08:54:14.041Z,71.25
2022-11-27T08:57:17.149Z,70.88
2022-11-27T09:00:24.877Z,72.29
2022-11-27T09:03:29.702Z,71.57
2022-11-27T09:06:33.520Z,72.76
2022-11-27T09:09:36.893Z,72.47
2022-11-27T09:12:43.191Z,72.24
2022-11-27T09:15:45.656Z,71.29
2022-11-27T09:18:49.380Z,71.21
2022-11-27T09:21:51.481Z,71.54
2022-11-27T09:24:53.534Z,71.75
2022-11-27T09:27:55.599Z,70.53
2022-11-27T09:30:58.331Z,71.32
2022-11-27T09:34:00.453Z,72.72
2022-11-27T09:37:03.958Z,72.49
2022-11-27T09:40:07.026Z,73.61
2022-11-27T09:43:11.201Z,73.66
2022-11-27T09:46:19.535Z,74.08
2022-11-27T09:49:29.206Z,72.90
2022-11-27T09:53:06.636Z,73.75
2022-11-27T09:56:11.271Z,74.61
2022-11-27T09:59:17.911Z,72.36
2022-11-27T10:02:32.028Z,73.60
2022-11-27T10:05:47.953Z,74.31
2022-11-27T10:09:12.721Z,74.85
2022-11-27T10:12:23.484Z,74.90
2022-11-27T10:15:49.846Z,75.35
2022-11-27T10:18:58.238Z,74.48
2022-11-27T10:22:19.616Z,75.64
2022-11-27T10:25:38.416Z,74.42
2022-11-27T10:29:10.615Z,75.10
2022-11-27T10:32:53.091Z,75.99
2022-11-27T10:35:41.360Z,75.58
2022-11-27T10:38:43.515Z,75.93
2022-11-27T10:42:01.811Z,74.82
2022-11-27T10:45:10.465Z,76.54
2022-11-27T10:48:13.373Z,75.66
2022-11-27T10:51:21.582Z,76.11
2022-11-27T10:54:31.930Z,76.17
2022-11-27T10:57:48.958Z,75.79
2022-11-27T11:01:02.488Z,75.15
2022-11-27T11:04:24.244Z,74.91
2022-11-27T11:07:29.558Z,75.43
2022-11-27T11:10:43.944Z,75.42
2022-11-27T11:13:46.843Z,74.67
2022-11-27T11:16:49.159Z,74.65
2022-11-27T11:19:51.365Z,75.19
2022-11-27T11:22:53.452Z,74.97
2022-11-27T11:25:59.000Z,75.13
2022-11-27T11:29:06.313Z,75.38
2022-11-27T11:32:13.948Z,75.33
2022-11-27T11:35:32.841Z,74.51
2022-11-27T11:38:34.890Z,74.18
2022-11-27T11:41:40.147Z,73.36
2022-11-27T11:44:42.450Z,71.79
2022-11-27T11:48:21.816Z,73.44
2022-11-27T11:51:38.096Z,72.46
2022-11-27T11:55:17.517Z,72.46
2022-11-27T11:58:54.610Z,72.31
2022-11-27T12:02:25.600Z,71.84
2022-11-27T12:05:50.284Z,73.00
2022-11-27T12:09:10.476Z,72.44
2022-11-27T12:12:50.022Z,71.24
2022-11-27T12:16:23.080Z,69.56
2022-11-27T12:20:00.190Z,70.51
2022-11-27T12:23:28.560Z,69.67
2022-11-27T12:26:55.951Z,68.44
2022-11-27T12:30:17.888Z,69.36
2022-11-27T12:34:00.429Z,67.67
2022-11-27T12:37:14.442Z,67.86
2022-11-27T12:40:30.241Z,68.29
2022-11-27T12:43:47.856Z,65.87
2022-11-27T12:47:24.902Z,65.26
2022-11-27T12:51:03.684Z,64.63
2022-11-27T12:54:16.533Z,64.27
2022-11-27T12:57:34.363Z,63.44
2022-11-27T13:00:39.503Z,63.25
2022-11-27T13:04:15.481Z,63.37
2022-11-27T13:07:24.121Z,65.47
2022-11-27T13:10:33.984Z,63.63
2022-11-27T13:13:40.867Z,62.74
2022-11-27T13:16:46.794Z,62.27
2022-11-27T13:19:50.185Z,61.58
2022-11-27T13:22:52.237Z,61.79
2022-11-27T13:25:55.073Z,62.54
2022-11-27T13:29:48.350Z,62.66
2022-11-27T13:32:56.377Z,63.50
2022-11-27T13:35:58.440Z,63.06
2022-11-27T13:39:01.473Z,62.17
2022-11-27T13:42:13.001Z,62.84
2022-11-27T13:45:34.101Z,61.17
2022-11-27T13:48:42.158Z,62.68
2022-11-27T13:51:44.212Z,62.02
2022-11-27T13:55:05.470Z,62.91
2022-11-27T13:58:08.224Z,62.80
2022-11-27T14:01:24.252Z,62.42
2022-11-27T14:04:27.869Z,63.85
2022-11-27T14:07:38.053Z,64.43
2022-11-27T14:10:58.840Z,64.93
2022-11-27T14:14:01.294Z,64.45
2022-11-27T14:17:09.073Z,65.55
2022-11-27T14:20:11.465Z,65.77
2022-11-27T14:23:14.050Z,65.16
2022-11-27T14:26:16.134Z,65.13
2022-11-27T14:29:20.951Z,63.74
2022-11-27T14:32:23.083Z,64.71
2022-11-27T14:35:26.972Z,65.17
2022-11-27T14:38:30.200Z,63.44
2022-11-27T14:41:32.366Z,63.28
2022-11-27T14:44:34.880Z,65.67
2022-11-27T14:47:37.061Z,66.27
2022-11-27T14:50:39.170Z,66.24
2022-11-27T14:53:41.202Z,66.81
2022-11-27T14:56:43.913Z,68.73
2022-11-27T14:59:46.003Z,69.90
2022-11-27T15:02:51.563Z,70.77
2022-11-27T15:06:05.666Z,71.71
2022-11-27T15:09:31.312Z,71.83
2022-11-27T15:12:42.520Z,72.11
2022-11-27T15:15:44.680Z,72.60
2022-11-27T15:19:01.998Z,72.86
2022-11-27T15:22:04.213Z,73.34
2022-11-27T15:25:07.679Z,73.72
2022-11-27T15:28:34.256Z,73.54
2022-11-27T15:31:37.766Z,72.77
2022-11-27T15:34:40.454Z,72.57
2022-11-27T15:37:42.768Z,72.86
2022-11-27T15:40:44.834Z,73.21
2022-11-27T15:43:46.921Z,72.85
2022-11-27T15:46:50.307Z,74.20
2022-11-27T15:49:52.434Z,73.66
2022-11-27T15:52:54.599Z,73.56
2022-11-27T15:55:58.265Z,75.53
2022-11-27T15:59:00.466Z,75.54
2022-11-27T16:02:02.775Z,76.82
2022-11-27T16:05:08.805Z,77.49
2022-11-27T16:08:10.935Z,78.28
2022-11-27T16:11:14.329Z,78.60
2022-11-27T16:14:16.443Z,79.44
2022-11-27T16:17:18.648Z,80.62
2022-11-27T16:20:20.893Z,80.91
2022-11-27T16:23:23.023Z,79.66
2022-11-27T16:26:25.190Z,81.03
2022-11-27T16:29:27.396Z,81.86
2022-11-27T16:32:29.579Z,81.20
2022-11-27T16:35:31.919Z,80.87
2022-11-27T16:38:34.216Z,81.68
2022-11-27T16:41:36.997Z,81.34
2022-11-27T16:44:39.896Z,80.07
2022-11-27T16:47:42.133Z,80.36
2022-11-27T16:50:44.244Z,79.87
2022-11-27T16:53:49.158Z,80.86
2022-11-27T16:56:51.774Z,81.25
2022-11-27T16:59:53.890Z,82.44
2022-11-27T17:02:56.054Z,83.11
2022-11-27T17:05:58.680Z,83.30
2022-11-27T17:09:02.005Z,83.32
2022-11-27T17:15:08.597Z,84.49
2022-11-27T17:18:10.907Z,84.85
2022-11-27T17:21:21.161Z,84.91
2022-11-27T17:24:25.766Z,84.43
2022-11-27T17:27:28.504Z,84.35
2022-11-27T17:30:33.947Z,85.40
2022-11-27T17:33:40.024Z,84.81
2022-11-27T17:36:44.886Z,85.40
2022-11-27T17:39:48.365Z,84.02
2022-11-27T17:42:50.386Z,85.13
2022-11-27T17:45:53.115Z,85.08
2022-11-27T17:48:59.034Z,84.70
2022-11-27T17:52:06.158Z,83.76
2022-11-27T17:55:08.762Z,82.86
2022-11-27T17:58:10.831Z,83.03
2022-11-27T18:01:22.072Z,82.95
2022-11-27T18:04:25.655Z,81.61
2022-11-27T18:07:28.862Z,82.12
2022-11-27T18:10:32.865Z,81.74
2022-11-27T18:13:34.959Z,81.15
2022-11-27T18:16:38.519Z,82.02
2022-11-27T18:19:41.061Z,81.13
2022-11-27T18:22:43.388Z,81.13
2022-11-27T18:25:48.971Z,80.64
2022-11-27T18:28:55.418Z,80.37
2022-11-27T18:31:57.502Z,79.43
2022-11-27T18:34:59.567Z,79.59
2022-11-27T18:38:01.603Z,81.18
2022-11-27T18:41:07.462Z,82.14
2022-11-27T18:44:10.475Z,82.06
2022-11-27T18:47:14.673Z,82.36
2022-11-27T18:50:18.255Z,81.96
2022-11-27T18:53:20.285Z,81.87
2022-11-27T18:56:27.298Z,80.02
2022-11-27T18:59:29.359Z,79.74
2022-11-27T19:02:31.472Z,79.43
2022-11-27T19:05:36.424Z,79.99
2022-11-27T19:08:38.601Z,80.82
2022-11-27T19:11:41.440Z,80.81
2022-11-27T19:14:44.030Z,81.83
2022-11-27T19:17:46.345Z,81.60
2022-11-27T19:20:48.470Z,81.66
2022-11-27T19:23:51.668Z,80.54
2022-11-27T19:26:53.769Z,80.47
2022-11-27T19:29:55.929Z,80.46
2022-11-27T19:32:58.146Z,80.88
2022-11-27T19:36:13.584Z,82.15
2022-11-27T19:39:15.809Z,82.71
2022-11-27T19:42:18.154Z,82.47
2022-11-27T19:45:21.527Z,82.26
2022-11-27T19:48:23.957Z,81.74
2022-11-27T19:51:26.500Z,81.59
2022-11-27T19:54:28.600Z,83.10
2022-11-27T19:57:31.780Z,82.42
2022-11-27T20:00:33.836Z,81.61
2022-11-27T20:03:36.044Z,81.23
2022-11-27T20:06:38.479Z,82.29
2022-11-27T20:09:40.531Z,82.00
2022-11-27T20:12:42.713Z,83.18
2022-11-27T20:15:44.836Z,82.13
2022-11-27T20:18:47.105Z,81.44
2022-11-27T20:21:49.274Z,81.67
2022-11-27T20:25:17.695Z,82.96
2022-11-27T20:28:15.294Z,84.60
2022-11-27T20:34:33.992Z,83.56
2022-11-27T20:37:36.117Z,83.97
2022-11-27T20:40:39.440Z,84.43
2022-11-27T20:43:42.969Z,86.91
2022-11-27T20:46:45.097Z,83.88
2022-11-27T20:49:48.093Z,82.45
2022-11-27T20:52:50.197Z,84.10
2022-11-27T20:55:53.702Z,84.48
2022-11-27T20:58:56.205Z,81.11
2022-11-27T21:01:58.316Z,81.39
2022-11-27T21:05:00.677Z,80.85
2022-11-27T21:08:02.840Z,81.44
2022-11-27T21:11:17.210Z,81.08
2022-11-27T21:14:19.728Z,79.55
2022-11-27T21:17:21.771Z,79.50
2022-11-27T21:20:23.821Z,79.13
2022-11-27T21:23:25.841Z,80.70
2022-11-27T21:26:28.540Z,79.07
2022-11-27T21:29:31.728Z,78.72
2022-11-27T21:32:33.746Z,79.43
2022-11-27T21:35:40.207Z,78.76
2022-11-27T21:38:43.019Z,79.66
2022-11-27T21:41:45.124Z,80.67
2022-11-27T21:44:47.844Z,79.89
2022-11-27T21:47:49.959Z,80.31
2022-11-27T21:50:51.984Z,78.77
2022-11-27T21:53:55.546Z,78.47
2022-11-27T21:56:57.607Z,78.22
2022-11-27T21:59:59.683Z,77.64
2022-11-27T22:03:01.750Z,77.35
2022-11-27T22:06:09.905Z,78.37
2022-11-27T22:09:15.389Z,79.30
2022-11-27T22:12:18.223Z,79.51
2022-11-27T22:15:20.255Z,79.56
2022-11-27T22:18:23.110Z,80.42
2022-11-27T22:21:25.364Z,80.50
2022-11-27T22:24:27.677Z,80.87
2022-11-27T22:27:29.718Z,82.41
2022-11-27T22:30:31.988Z,81.39
2022-11-27T22:33:36.955Z,82.78
2022-11-27T22:36:39.065Z,82.34
2022-11-27T22:39:43.450Z,81.42
2022-11-27T22:42:45.586Z,81.66
2022-11-27T22:45:48.316Z,82.41
2022-11-27T22:49:00.725Z,81.69
2022-11-27T22:52:03.171Z,81.91
2022-11-27T22:55:06.137Z,81.18
2022-11-27T22:58:08.320Z,82.32
2022-11-27T23:01:21.252Z,82.17
2022-11-27T23:04:23.391Z,83.39
2022-11-27T23:07:25.786Z,83.76
2022-11-27T23:10:28.074Z,82.63
2022-11-27T23:13:30.093Z,83.14
2022-11-27T23:16:32.351Z,83.69
2022-11-27T23:19:34.411Z,81.69
2022-11-27T23:22:36.668Z,81.66
2022-11-27T23:25:38.853Z,81.75
2022-11-27T23:28:41.003Z,82.26
2022-11-27T23:31:43.213Z,83.61
2022-11-27T23:34:45.281Z,84.01
2022-11-27T23:37:47.376Z,84.48
2022-11-27T23:40:49.389Z,83.60
2022-11-27T23:43:52.589Z,83.91
2022-11-27T23:46:54.864Z,82.74
2022-11-27T23:49:56.952Z,83.04
2022-11-27T23:52:59.013Z,82.47
2022-11-27T23:56:03.269Z,82.76
2022-11-27T23:59:05.516Z,81.49
